createdAt,value
2019-03-25T00:02:01.964Z,66.27
2019-03-25T00:04:32.354Z,65.77
2019-03-25T00:07:02.749Z,66.20
2019-03-25T00:09:33.034Z,65.77
2019-03-25T00:12:04.814Z,66.70
2019-03-25T00:14:35.256Z,64.97
2019-03-25T00:17:05.655Z,65.80
2019-03-25T00:19:36.018Z,70.57
2019-03-25T00:22:06.281Z,67.80
2019-03-25T00:24:39.048Z,70.40
2019-03-25T00:27:08.519Z,70.40
2019-03-25T00:29:38.842Z,64.83
2019-03-25T00:32:09.161Z,63.30
2019-03-25T00:34:39.491Z,67.47
2019-03-25T00:37:09.846Z,61.37
2019-03-25T00:39:40.246Z,70.40
2019-03-25T00:42:10.572Z,69.63
2019-03-25T00:44:40.913Z,70.83
2019-03-25T00:47:12.528Z,71.43
2019-03-25T00:49:42.856Z,62.47
2019-03-25T00:52:13.153Z,66.03
2019-03-25T00:54:50.065Z,66.73
2019-03-25T00:57:15.370Z,66.03
2019-03-25T00:59:45.602Z,68.30
2019-03-25T01:02:15.925Z,63.50
2019-03-25T01:04:46.088Z,64.23
2019-03-25T01:07:16.339Z,68.23
2019-03-25T01:09:46.631Z,66.40
2019-03-25T01:12:17.341Z,60.87
2019-03-25T01:14:47.610Z,69.83
2019-03-25T01:17:17.934Z,66.10
2019-03-25T01:19:48.310Z,65.30
2019-03-25T01:22:18.579Z,69.37
2019-03-25T01:24:48.948Z,65.80
2019-03-25T01:27:19.214Z,65.40
2019-03-25T01:29:49.498Z,70.43
2019-03-25T01:32:19.786Z,65.63
2019-03-25T01:34:50.087Z,67.33
2019-03-25T01:37:20.488Z,63.20
2019-03-25T01:39:50.777Z,63.50
2019-03-25T01:42:21.181Z,71.03
2019-03-25T01:44:51.458Z,69.60
2019-03-25T01:47:21.669Z,68.37
2019-03-25T01:49:51.901Z,64.37
2019-03-25T01:52:22.220Z,68.73
2019-03-25T01:54:52.557Z,63.37
2019-03-25T01:57:22.780Z,57.00
2019-03-25T01:59:53.117Z,65.40
2019-03-25T02:02:23.318Z,63.70
2019-03-25T02:04:53.725Z,67.23
2019-03-25T02:07:24.159Z,68.43
2019-03-25T02:09:54.407Z,63.70
2019-03-25T02:12:24.642Z,66.63
2019-03-25T02:14:54.973Z,68.83
2019-03-25T02:17:25.181Z,66.37
2019-03-25T02:19:55.537Z,69.30
2019-03-25T02:22:25.927Z,66.77
2019-03-25T02:24:56.281Z,60.87
2019-03-25T02:27:26.665Z,63.90
2019-03-25T02:29:57.002Z,72.63
2019-03-25T02:32:27.460Z,62.33
2019-03-25T02:34:57.795Z,67.23
2019-03-25T02:37:28.069Z,70.47
2019-03-25T02:39:58.383Z,70.63
2019-03-25T02:42:28.650Z,73.33
2019-03-25T02:44:59.008Z,75.57
2019-03-25T02:47:29.331Z,72.00
2019-03-25T02:49:59.769Z,70.57
2019-03-25T02:52:30.038Z,69.20
2019-03-25T02:55:00.637Z,66.23
2019-03-25T02:57:31.203Z,67.67
2019-03-25T03:00:01.569Z,67.13
2019-03-25T03:02:31.940Z,72.17
2019-03-25T03:05:02.469Z,67.23
2019-03-25T03:07:32.758Z,68.77
2019-03-25T03:10:03.008Z,69.57
2019-03-25T03:12:34.553Z,69.40
2019-03-25T03:15:05.655Z,71.47
2019-03-25T03:17:36.002Z,71.60
2019-03-25T03:20:06.849Z,67.37
2019-03-25T03:22:37.257Z,69.10
2019-03-25T03:25:07.521Z,65.40
2019-03-25T03:27:37.815Z,67.10
2019-03-25T03:30:10.346Z,71.37
2019-03-25T03:32:40.495Z,69.73
2019-03-25T03:35:11.034Z,65.23
2019-03-25T03:37:41.355Z,73.83
2019-03-25T03:40:11.846Z,63.40
2019-03-25T03:42:42.039Z,67.83
2019-03-25T03:45:12.795Z,67.50
2019-03-25T03:47:43.223Z,70.60
2019-03-25T03:50:18.118Z,71.60
2019-03-25T03:52:48.498Z,71.63
2019-03-25T03:55:18.796Z,70.87
2019-03-25T03:57:49.224Z,68.00
2019-03-25T04:00:31.205Z,70.90
2019-03-25T04:03:01.811Z,67.50
2019-03-25T04:05:32.135Z,70.37
2019-03-25T04:08:02.809Z,72.73
2019-03-25T04:10:33.120Z,67.60
2019-03-25T04:13:03.459Z,69.17
2019-03-25T04:15:34.619Z,71.83
2019-03-25T04:18:04.944Z,80.13
2019-03-25T04:20:35.130Z,73.07
2019-03-25T04:23:05.462Z,72.17
2019-03-25T04:25:35.755Z,71.97
2019-03-25T04:28:06.094Z,74.97
2019-03-25T04:30:36.373Z,74.23
2019-03-25T04:33:06.617Z,72.53
2019-03-25T04:35:36.871Z,78.57
2019-03-25T04:38:07.249Z,73.93
2019-03-25T04:40:38.324Z,71.80
2019-03-25T04:43:08.637Z,72.23
2019-03-25T04:45:38.929Z,75.50
2019-03-25T04:48:09.781Z,77.10
2019-03-25T04:50:40.103Z,80.00
2019-03-25T04:53:10.312Z,75.23
2019-03-25T04:55:40.615Z,71.67
2019-03-25T04:58:10.933Z,72.67
2019-03-25T05:00:41.358Z,71.60
2019-03-25T05:03:13.009Z,76.30
2019-03-25T05:05:43.250Z,74.90
2019-03-25T05:08:13.485Z,71.93
2019-03-25T05:10:43.757Z,76.90
2019-03-25T05:13:14.041Z,78.23
2019-03-25T05:15:44.350Z,76.80
2019-03-25T05:18:14.621Z,75.53
2019-03-25T05:20:44.942Z,76.60
2019-03-25T05:23:15.301Z,76.23
2019-03-25T05:25:45.655Z,78.77
2019-03-25T05:28:16.048Z,77.77
2019-03-25T05:30:46.393Z,74.10
2019-03-25T05:33:16.669Z,77.57
2019-03-25T05:35:47.035Z,81.67
2019-03-25T05:38:17.319Z,70.83
2019-03-25T05:40:47.643Z,85.27
2019-03-25T05:43:17.867Z,77.67
2019-03-25T05:45:48.148Z,81.53
2019-03-25T05:48:18.533Z,77.97
2019-03-25T05:50:48.921Z,86.80
2019-03-25T05:53:19.301Z,73.40
2019-03-25T05:55:49.986Z,80.10
2019-03-25T05:58:20.271Z,82.93
2019-03-25T06:00:50.728Z,78.43
2019-03-25T06:03:21.036Z,69.87
2019-03-25T06:05:51.354Z,74.57
2019-03-25T06:08:21.627Z,74.30
2019-03-25T06:10:51.954Z,79.17
2019-03-25T06:13:22.282Z,74.23
2019-03-25T06:15:53.727Z,71.53
2019-03-25T06:18:23.938Z,83.73
2019-03-25T06:20:54.130Z,77.40
2019-03-25T06:23:24.370Z,74.67
2019-03-25T06:25:54.781Z,77.67
2019-03-25T06:28:25.182Z,74.53
2019-03-25T06:30:55.533Z,84.30
2019-03-25T06:33:25.911Z,74.87
2019-03-25T06:35:56.262Z,73.17
2019-03-25T06:38:26.610Z,76.83
2019-03-25T06:40:56.926Z,74.33
2019-03-25T06:43:27.282Z,71.13
2019-03-25T06:45:57.574Z,73.30
2019-03-25T06:48:27.846Z,74.97
2019-03-25T06:50:58.491Z,103.03
2019-03-25T06:53:28.754Z,75.60
2019-03-25T06:55:59.029Z,77.33
2019-03-25T06:58:29.253Z,74.10
2019-03-25T07:00:59.721Z,79.93
2019-03-25T07:03:30.043Z,82.17
2019-03-25T07:06:00.397Z,75.87
2019-03-25T07:08:30.762Z,80.73
2019-03-25T07:11:01.041Z,82.13
2019-03-25T07:13:32.867Z,75.80
2019-03-25T07:16:04.182Z,78.97
2019-03-25T07:18:35.727Z,61.33
2019-03-25T07:21:08.605Z,54.13
2019-03-25T07:23:38.998Z,58.53
2019-03-25T07:26:09.624Z,46.27
2019-03-25T07:28:40.051Z,48.70
2019-03-25T07:31:10.306Z,60.57
2019-03-25T07:33:50.776Z,54.07
2019-03-25T07:36:21.338Z,62.20
2019-03-25T07:38:51.739Z,52.17
2019-03-25T07:41:22.239Z,55.47
2019-03-25T07:43:55.450Z,52.47
2019-03-25T07:46:25.857Z,55.47
2019-03-25T07:49:00.559Z,52.63
2019-03-25T07:51:30.787Z,50.50
2019-03-25T07:54:02.052Z,46.97
2019-03-25T07:56:36.134Z,54.50
2019-03-25T07:59:06.440Z,48.77
2019-03-25T08:01:37.662Z,53.67
2019-03-25T08:04:10.466Z,49.07
2019-03-25T08:06:40.780Z,59.50
2019-03-25T08:09:11.201Z,52.13
2019-03-25T08:11:43.934Z,61.37
2019-03-25T08:14:16.149Z,56.30
2019-03-25T08:16:48.040Z,53.37
2019-03-25T08:19:20.358Z,50.20
2019-03-25T08:21:50.663Z,47.47
2019-03-25T08:24:21.040Z,46.37
2019-03-25T08:26:56.939Z,47.03
2019-03-25T08:29:27.297Z,47.20
2019-03-25T08:31:59.020Z,40.30
2019-03-25T08:34:29.587Z,45.17
2019-03-25T08:37:00.999Z,45.07
2019-03-25T08:39:32.857Z,45.20
2019-03-25T08:42:03.113Z,43.43
2019-03-25T08:44:33.345Z,49.40
2019-03-25T08:47:07.249Z,41.53
2019-03-25T08:49:39.168Z,43.63
2019-03-25T08:52:11.303Z,50.10
2019-03-25T08:54:41.607Z,47.80
2019-03-25T08:57:12.050Z,41.93
2019-03-25T08:59:42.430Z,48.50
2019-03-25T09:02:13.006Z,48.43
2019-03-25T09:04:43.294Z,47.97
2019-03-25T09:07:14.633Z,49.00
2019-03-25T09:09:44.913Z,53.07
2019-03-25T09:12:15.181Z,48.20
2019-03-25T09:14:45.565Z,46.13
2019-03-25T09:17:16.866Z,49.40
2019-03-25T09:19:50.928Z,48.73
2019-03-25T09:22:22.898Z,46.30
2019-03-25T09:24:53.225Z,54.47
2019-03-25T09:27:29.121Z,47.33
2019-03-25T09:30:03.090Z,48.33
2019-03-25T09:32:32.484Z,46.97
2019-03-25T09:35:08.270Z,42.73
2019-03-25T09:37:38.882Z,47.77
2019-03-25T09:40:12.791Z,47.63
2019-03-25T09:42:45.261Z,47.33
2019-03-25T09:45:17.477Z,48.23
2019-03-25T09:47:48.706Z,43.60
2019-03-25T09:50:21.327Z,41.63
2019-03-25T09:54:13.421Z,37.60
2019-03-25T10:01:24.098Z,39.70
2019-03-25T10:04:45.476Z,38.40
2019-03-25T10:11:22.419Z,39.53
2019-03-25T10:14:01.311Z,34.30
2019-03-25T10:16:41.066Z,36.53
2019-03-25T10:19:11.522Z,33.20
2019-03-25T10:21:42.008Z,34.30
2019-03-25T10:24:12.445Z,37.00
2019-03-25T10:26:42.990Z,32.63
2019-03-25T10:29:13.397Z,35.67
2019-03-25T10:31:43.754Z,34.57
2019-03-25T10:34:14.128Z,38.83
2019-03-25T10:36:44.593Z,41.33
2019-03-25T10:39:15.056Z,38.90
2019-03-25T10:41:45.514Z,41.70
2019-03-25T10:44:15.933Z,39.70
2019-03-25T10:46:46.354Z,37.97
2019-03-25T10:49:16.863Z,37.43
2019-03-25T10:51:47.207Z,42.30
2019-03-25T10:54:21.989Z,40.63
2019-03-25T10:56:52.281Z,39.97
2019-03-25T10:59:22.702Z,41.53
2019-03-25T11:01:53.087Z,36.93
2019-03-25T11:04:23.506Z,39.70
2019-03-25T11:06:54.028Z,39.87
2019-03-25T11:09:24.432Z,37.87
2019-03-25T11:11:54.914Z,36.60
2019-03-25T11:14:25.367Z,36.03
2019-03-25T11:16:55.669Z,38.50
2019-03-25T11:19:25.926Z,37.07
2019-03-25T11:21:57.184Z,37.53
2019-03-25T11:24:27.463Z,35.90
2019-03-25T11:26:57.762Z,34.83
2019-03-25T11:29:28.178Z,37.10
2019-03-25T11:31:58.500Z,27.43
2019-03-25T11:34:28.757Z,31.37
2019-03-25T11:36:59.118Z,30.00
2019-03-25T11:39:30.054Z,25.88
2019-03-25T11:42:00.414Z,26.45
2019-03-25T11:44:30.713Z,26.50
2019-03-25T11:47:00.930Z,28.50
2019-03-25T11:49:31.315Z,26.73
2019-03-25T11:52:01.710Z,24.07
2019-03-25T11:54:32.726Z,26.82
2019-03-25T11:57:03.179Z,23.93
2019-03-25T11:59:33.462Z,21.50
2019-03-25T12:02:03.774Z,22.23
2019-03-25T12:04:34.205Z,18.37
2019-03-25T12:07:04.502Z,19.77
2019-03-25T12:09:34.854Z,18.07
2019-03-25T12:12:05.137Z,20.10
2019-03-25T12:14:35.590Z,16.15
2019-03-25T12:17:05.910Z,16.90
2019-03-25T12:19:36.169Z,12.65
2019-03-25T12:22:06.455Z,13.00
2019-03-25T12:24:36.983Z,11.05
2019-03-25T12:27:07.378Z,11.75
2019-03-25T12:29:37.734Z,12.28
2019-03-25T12:32:08.021Z,14.83
2019-03-25T12:34:38.329Z,13.22
2019-03-25T12:37:08.738Z,9.95
2019-03-25T12:39:38.973Z,12.90
2019-03-25T12:42:09.233Z,11.00
2019-03-25T12:44:39.485Z,12.20
2019-03-25T12:47:09.789Z,11.67
2019-03-25T12:49:40.100Z,11.22
2019-03-25T12:52:10.462Z,9.78
2019-03-25T12:54:40.789Z,9.95
2019-03-25T12:57:11.389Z,7.63
2019-03-25T12:59:41.825Z,9.67
2019-03-25T13:02:12.574Z,13.15
2019-03-25T13:04:42.910Z,7.78
2019-03-25T13:07:13.230Z,7.30
2019-03-25T13:09:43.576Z,8.80
2019-03-25T13:12:13.912Z,6.87
2019-03-25T13:14:44.235Z,5.28
2019-03-25T13:17:14.584Z,5.95
2019-03-25T13:19:44.959Z,5.67
2019-03-25T13:22:15.245Z,5.80
2019-03-25T13:24:45.495Z,7.17
2019-03-25T13:27:15.707Z,9.35
2019-03-25T13:29:52.463Z,10.43
2019-03-25T13:32:18.034Z,5.95
2019-03-25T13:34:48.435Z,8.73
2019-03-25T13:37:18.774Z,7.87
2019-03-25T13:39:49.122Z,5.97
2019-03-25T13:42:19.548Z,6.37
2019-03-25T13:44:49.958Z,6.47
2019-03-25T13:47:20.366Z,7.40
2019-03-25T13:49:50.673Z,6.70
2019-03-25T13:52:20.914Z,4.87
2019-03-25T13:54:51.407Z,6.10
2019-03-25T13:57:21.944Z,5.30
2019-03-25T14:00:02.686Z,5.63
2019-03-25T14:02:24.447Z,3.57
2019-03-25T14:04:54.780Z,5.50
2019-03-25T14:07:25.026Z,7.47
2019-03-25T14:09:55.301Z,5.17
2019-03-25T14:12:25.646Z,7.23
2019-03-25T14:14:55.965Z,5.73
2019-03-25T14:17:26.304Z,5.83
2019-03-25T14:19:56.622Z,5.80
2019-03-25T14:22:26.918Z,4.53
2019-03-25T14:24:57.270Z,5.73
2019-03-25T14:27:27.642Z,7.17
2019-03-25T14:29:58.016Z,5.67
2019-03-25T14:32:28.398Z,5.37
2019-03-25T14:34:58.642Z,6.03
2019-03-25T14:37:28.873Z,5.23
2019-03-25T14:39:59.241Z,4.17
2019-03-25T14:42:29.652Z,3.43
2019-03-25T14:45:00.030Z,5.70
2019-03-25T14:47:31.598Z,4.13
2019-03-25T14:50:01.875Z,3.20
2019-03-25T14:52:32.221Z,8.10
2019-03-25T14:55:02.458Z,5.73
2019-03-25T14:57:32.774Z,4.33
2019-03-25T15:00:03.225Z,5.23
2019-03-25T15:02:33.595Z,7.43
2019-03-25T15:05:03.967Z,3.50
2019-03-25T15:07:34.433Z,6.80
2019-03-25T15:10:04.982Z,6.87
2019-03-25T15:12:35.284Z,5.40
2019-03-25T15:15:06.426Z,3.90
2019-03-25T15:17:36.848Z,4.90
2019-03-25T15:20:10.031Z,4.30
2019-03-25T15:22:42.970Z,5.00
2019-03-25T15:25:15.073Z,3.53
2019-03-25T15:27:45.344Z,5.57
2019-03-25T15:30:17.002Z,8.70
2019-03-25T15:32:47.378Z,3.73
2019-03-25T15:35:17.738Z,3.10
2019-03-25T15:37:48.070Z,3.10
2019-03-25T15:40:18.708Z,3.87
2019-03-25T15:42:49.018Z,2.60
2019-03-25T15:45:19.344Z,1.87
2019-03-25T15:47:49.706Z,5.20
2019-03-25T15:50:20.527Z,1.97
2019-03-25T15:52:51.446Z,4.13
2019-03-25T15:55:21.671Z,3.23
2019-03-25T15:57:51.971Z,7.30
2019-03-25T16:00:23.858Z,2.77
2019-03-25T16:02:54.189Z,1.43
2019-03-25T16:05:24.494Z,3.00
2019-03-25T16:07:54.794Z,1.57
2019-03-25T16:10:25.050Z,1.63
2019-03-25T16:12:55.401Z,4.33
2019-03-25T16:15:39.584Z,1.20
2019-03-25T16:18:10.180Z,2.83
2019-03-25T16:20:40.545Z,2.87
2019-03-25T16:23:10.762Z,1.50
2019-03-25T16:25:41.162Z,2.20
2019-03-25T16:28:11.501Z,1.53
2019-03-25T16:30:41.853Z,3.90
2019-03-25T16:33:12.269Z,1.60
2019-03-25T16:35:42.465Z,1.70
2019-03-25T16:38:12.747Z,2.10
2019-03-25T16:40:43.163Z,3.13
2019-03-25T16:43:13.593Z,2.23
2019-03-25T16:45:43.958Z,1.60
2019-03-25T16:48:14.292Z,2.37
2019-03-25T16:50:44.569Z,1.93
2019-03-25T16:53:14.830Z,2.10
2019-03-25T16:55:45.239Z,4.93
2019-03-25T16:58:15.618Z,3.17
2019-03-25T17:00:46.009Z,3.53
2019-03-25T17:03:16.309Z,2.53
2019-03-25T17:05:46.615Z,2.57
2019-03-25T17:08:16.938Z,4.43
2019-03-25T17:10:47.294Z,4.10
2019-03-25T17:13:18.448Z,4.07
2019-03-25T17:15:48.769Z,3.23
2019-03-25T17:18:19.050Z,5.23
2019-03-25T17:20:49.310Z,3.77
2019-03-25T17:23:19.517Z,3.67
2019-03-25T17:25:53.359Z,3.80
2019-03-25T17:28:21.923Z,5.87
2019-03-25T17:30:52.152Z,5.67
2019-03-25T17:33:22.568Z,6.40
2019-03-25T17:35:52.862Z,3.83
2019-03-25T17:38:23.204Z,3.83
2019-03-25T17:40:53.507Z,3.87
2019-03-25T17:43:23.856Z,4.93
2019-03-25T17:45:54.157Z,4.70
2019-03-25T17:48:24.500Z,3.70
2019-03-25T17:50:54.881Z,4.83
2019-03-25T17:53:25.221Z,4.10
2019-03-25T17:55:55.498Z,6.13
2019-03-25T17:58:25.770Z,6.93
2019-03-25T18:01:13.118Z,6.60
2019-03-25T18:03:43.485Z,7.33
2019-03-25T18:06:14.002Z,4.77
2019-03-25T18:08:45.833Z,3.53
2019-03-25T18:11:16.230Z,5.53
2019-03-25T18:13:46.451Z,4.23
2019-03-25T18:16:16.820Z,4.53
2019-03-25T18:18:47.065Z,5.50
2019-03-25T18:21:17.440Z,3.17
2019-03-25T18:23:47.803Z,6.23
2019-03-25T18:26:18.461Z,4.17
2019-03-25T18:28:48.777Z,4.37
2019-03-25T18:31:19.089Z,4.80
2019-03-25T18:33:49.614Z,6.43
2019-03-25T18:36:19.914Z,4.13
2019-03-25T18:38:50.234Z,5.10
2019-03-25T18:41:20.561Z,7.13
2019-03-25T18:43:50.878Z,6.07
2019-03-25T18:46:21.238Z,4.13
2019-03-25T18:48:51.591Z,5.87
2019-03-25T18:51:21.977Z,6.77
2019-03-25T18:53:52.327Z,6.30
2019-03-25T18:56:22.677Z,4.13
2019-03-25T18:58:53.158Z,4.47
2019-03-25T19:01:25.202Z,5.33
2019-03-25T19:03:55.525Z,5.33
2019-03-25T19:06:25.810Z,11.57
2019-03-25T19:08:56.799Z,4.93
2019-03-25T19:11:31.426Z,5.63
2019-03-25T19:13:59.019Z,9.47
2019-03-25T19:16:29.344Z,5.57
2019-03-25T19:18:59.588Z,5.37
2019-03-25T19:21:29.816Z,9.13
2019-03-25T19:24:00.072Z,11.77
2019-03-25T19:26:30.447Z,6.60
2019-03-25T19:29:00.811Z,5.60
2019-03-25T19:31:31.048Z,5.03
2019-03-25T19:34:01.459Z,4.87
2019-03-25T19:36:32.084Z,6.87
2019-03-25T19:39:04.459Z,6.77
2019-03-25T19:41:34.757Z,7.23
2019-03-25T19:44:05.042Z,5.33
2019-03-25T19:46:35.305Z,4.03
2019-03-25T19:49:05.545Z,5.10
2019-03-25T19:51:35.782Z,4.97
2019-03-25T19:54:06.155Z,5.57
2019-03-25T19:56:36.511Z,5.30
2019-03-25T19:59:06.936Z,5.60
2019-03-25T20:01:37.346Z,5.77
2019-03-25T20:04:07.643Z,6.03
2019-03-25T20:06:38.080Z,5.77
2019-03-25T20:09:09.262Z,6.30
2019-03-25T20:11:39.606Z,5.93
2019-03-25T20:14:09.887Z,6.27
2019-03-25T20:16:40.183Z,7.10
2019-03-25T20:19:10.628Z,7.07
2019-03-25T20:21:40.937Z,6.57
2019-03-25T20:24:11.306Z,6.20
2019-03-25T20:26:41.741Z,6.27
2019-03-25T20:29:12.136Z,7.03
2019-03-25T20:31:42.469Z,5.07
2019-03-25T20:34:12.765Z,7.60
2019-03-25T20:36:43.142Z,6.10
2019-03-25T20:39:13.535Z,8.80
2019-03-25T20:41:43.913Z,5.97
2019-03-25T20:44:14.200Z,6.13
2019-03-25T20:46:44.521Z,5.30
2019-03-25T20:49:16.854Z,5.23
2019-03-25T20:51:47.260Z,6.37
2019-03-25T20:54:17.564Z,5.23
2019-03-25T20:56:47.847Z,6.20
2019-03-25T20:59:18.115Z,6.37
2019-03-25T21:01:48.484Z,5.07
2019-03-25T21:04:18.798Z,5.73
2019-03-25T21:06:49.069Z,6.67
2019-03-25T21:09:20.566Z,5.80
2019-03-25T21:11:50.912Z,6.30
2019-03-25T21:14:21.214Z,6.03
2019-03-25T21:16:51.649Z,5.87
2019-03-25T21:19:21.905Z,7.67
2019-03-25T21:21:52.215Z,5.87
2019-03-25T21:24:22.556Z,5.13
2019-03-25T21:26:52.960Z,8.43
2019-03-25T21:29:23.258Z,5.87
2019-03-25T21:31:53.613Z,7.10
2019-03-25T21:34:23.960Z,5.50
2019-03-25T21:36:54.366Z,5.03
2019-03-25T21:39:24.655Z,5.30
2019-03-25T21:41:54.886Z,5.40
2019-03-25T21:44:25.380Z,4.60
2019-03-25T21:46:55.659Z,5.97
2019-03-25T21:49:26.027Z,4.87
2019-03-25T21:51:56.322Z,5.47
2019-03-25T21:54:26.654Z,9.23
2019-03-25T21:56:56.993Z,4.83
2019-03-25T21:59:27.276Z,5.63
2019-03-25T22:01:58.381Z,7.57
2019-03-25T22:04:30.121Z,5.23
2019-03-25T22:07:00.552Z,5.23
2019-03-25T22:09:30.821Z,7.20
2019-03-25T22:12:01.101Z,6.67
2019-03-25T22:14:31.427Z,7.23
2019-03-25T22:17:01.730Z,4.77
2019-03-25T22:19:32.117Z,7.13
2019-03-25T22:22:02.466Z,5.77
2019-03-25T22:24:32.815Z,6.23
2019-03-25T22:27:03.044Z,6.90
2019-03-25T22:29:33.338Z,5.77
2019-03-25T22:32:03.605Z,7.80
2019-03-25T22:34:33.786Z,6.70
2019-03-25T22:37:03.987Z,6.57
2019-03-25T22:39:34.318Z,5.73
2019-03-25T22:42:04.653Z,7.30
2019-03-25T22:44:34.945Z,7.53
2019-03-25T22:47:05.258Z,7.97
2019-03-25T22:49:35.550Z,7.20
2019-03-25T22:52:05.923Z,7.23
2019-03-25T22:54:36.257Z,7.57
2019-03-25T22:57:06.483Z,7.83
2019-03-25T22:59:36.732Z,10.47
2019-03-25T23:02:07.677Z,7.80
2019-03-25T23:04:37.900Z,8.47
2019-03-25T23:07:08.205Z,8.63
2019-03-25T23:09:38.561Z,9.47
2019-03-25T23:12:08.904Z,7.63
2019-03-25T23:14:39.253Z,9.07
2019-03-25T23:17:09.465Z,5.43
2019-03-25T23:19:39.767Z,7.30
2019-03-25T23:22:09.989Z,6.60
2019-03-25T23:24:40.304Z,6.30
2019-03-25T23:27:10.622Z,7.70
2019-03-25T23:29:40.999Z,7.53
2019-03-25T23:32:11.317Z,8.17
2019-03-25T23:34:41.664Z,6.67
2019-03-25T23:37:11.929Z,6.77
2019-03-25T23:39:42.138Z,8.70
2019-03-25T23:42:12.534Z,7.97
2019-03-25T23:44:42.761Z,7.93
2019-03-25T23:47:12.971Z,5.80
2019-03-25T23:49:43.260Z,7.13
2019-03-25T23:52:13.605Z,6.70
2019-03-25T23:54:43.984Z,6.87
2019-03-25T23:57:14.295Z,6.23
2019-03-25T23:59:44.686Z,6.53
